createdAt,value
2022-12-04T00:03:43.685Z,101934.56
2022-12-04T00:09:07.122Z,101935.41
2022-12-04T00:14:29.324Z,101917.80
2022-12-04T00:19:51.700Z,101910.73
2022-12-04T00:25:14.474Z,101907.15
2022-12-04T00:30:37.775Z,101902.77
2022-12-04T00:36:03.588Z,101927.31
2022-12-04T00:41:31.854Z,101918.53
2022-12-04T00:46:54.080Z,101934.36
2022-12-04T00:52:16.349Z,101942.27
2022-12-04T00:57:38.629Z,101930.83
2022-12-04T01:03:00.979Z,101929.91
2022-12-04T01:08:24.272Z,101921.02
2022-12-04T01:13:47.392Z,101911.30
2022-12-04T01:19:10.759Z,101898.89
2022-12-04T01:24:33.014Z,101895.30
2022-12-04T01:29:55.386Z,101895.23
2022-12-04T01:35:18.033Z,101884.63
2022-12-04T01:40:40.305Z,101891.64
2022-12-04T01:46:09.075Z,101893.37
2022-12-04T01:51:39.320Z,101893.32
2022-12-04T01:57:06.428Z,101903.84
2022-12-04T02:02:34.013Z,101892.34
2022-12-04T02:07:59.821Z,101888.79
2022-12-04T02:13:39.055Z,101887.84
2022-12-04T02:19:21.286Z,101884.28
2022-12-04T02:25:15.426Z,101885.16
2022-12-04T02:30:39.438Z,101871.91
2022-12-04T02:36:09.689Z,101871.00
2022-12-04T02:41:40.451Z,101863.93
2022-12-04T02:47:06.728Z,101860.39
2022-12-04T02:52:42.856Z,101858.60
2022-12-04T02:58:10.047Z,101855.09
2022-12-04T03:03:36.398Z,101851.55
2022-12-04T03:09:09.542Z,101846.23
2022-12-04T03:14:39.426Z,101855.03
2022-12-04T03:20:05.958Z,101847.05
2022-12-04T03:25:30.670Z,101851.47
2022-12-04T03:31:00.501Z,101851.44
2022-12-04T03:36:28.793Z,101850.55
2022-12-04T03:42:06.343Z,101838.23
2022-12-04T03:47:33.959Z,101855.86
2022-12-04T03:53:07.591Z,101840.88
2022-12-04T03:58:34.664Z,101840.01
2022-12-04T04:04:00.623Z,101831.19
2022-12-04T04:09:27.734Z,101838.23
2022-12-04T04:15:21.763Z,101820.61
2022-12-04T04:21:08.672Z,101821.52
2022-12-04T04:26:32.422Z,101825.91
2022-12-04T04:32:32.934Z,101823.23
2022-12-04T04:38:18.163Z,101832.90
2022-12-04T04:44:00.237Z,101821.43
2022-12-04T04:49:25.613Z,101817.92
2022-12-04T04:54:49.943Z,101828.45
2022-12-04T05:00:14.187Z,101829.30
2022-12-04T05:05:36.468Z,101834.59
2022-12-04T05:10:58.867Z,101836.36
2022-12-04T05:16:28.086Z,101846.05
2022-12-04T05:21:51.440Z,101860.11
2022-12-04T05:27:14.055Z,101863.66
2022-12-04T05:32:36.973Z,101861.88
2022-12-04T05:38:00.262Z,101857.50
2022-12-04T05:43:23.169Z,101851.31
2022-12-04T05:48:45.749Z,101849.57
2022-12-04T05:54:09.649Z,101848.67
2022-12-04T05:59:32.883Z,101842.52
2022-12-04T06:04:55.997Z,101839.00
2022-12-04T06:10:20.073Z,101850.47
2022-12-04T06:15:43.748Z,101858.39
2022-12-04T06:21:06.051Z,101849.57
2022-12-04T06:26:29.383Z,101851.34
2022-12-04T06:31:52.385Z,101843.41
2022-12-04T06:37:14.678Z,101846.92
2022-12-04T06:42:37.142Z,101839.87
2022-12-04T06:47:59.455Z,101842.52
2022-12-04T06:53:21.730Z,101847.80
2022-12-04T06:58:45.551Z,101854.83
2022-12-04T07:04:09.288Z,101855.70
2022-12-04T07:09:35.389Z,101860.95
2022-12-04T07:14:57.661Z,101861.83
2022-12-04T07:20:20.322Z,101855.65
2022-12-04T07:25:44.260Z,101860.94
2022-12-04T07:31:08.158Z,101851.20
2022-12-04T07:36:33.779Z,101860.01
2022-12-04T07:41:56.071Z,101846.77
2022-12-04T07:47:18.850Z,101851.18
2022-12-04T07:52:44.474Z,101849.41
2022-12-04T07:58:06.715Z,101852.03
2022-12-04T08:03:29.310Z,101838.81
2022-12-04T08:08:52.883Z,101842.30
2022-12-04T08:14:18.304Z,101844.02
2022-12-04T08:19:41.037Z,101859.88
2022-12-04T08:25:03.958Z,101858.07
2022-12-04T08:30:27.317Z,101863.36
2022-12-04T08:35:49.634Z,101867.75
2022-12-04T08:41:13.806Z,101863.30
2022-12-04T08:46:38.041Z,101866.82
2022-12-04T08:52:00.963Z,101865.92
2022-12-04T08:57:25.399Z,101871.18
2022-12-04T09:02:50.027Z,101871.13
2022-12-04T09:08:15.007Z,101868.42
2022-12-04T09:13:39.891Z,101873.69
2022-12-04T09:19:04.799Z,101880.69
2022-12-04T09:24:29.151Z,101866.59
2022-12-04T09:29:53.153Z,101870.08
2022-12-04T09:35:18.985Z,101855.09
2022-12-04T09:40:51.398Z,101841.84
2022-12-04T09:46:20.957Z,101835.59
2022-12-04T09:51:45.440Z,101834.69
2022-12-04T09:57:15.378Z,101835.56
2022-12-04T10:02:54.976Z,101835.31
2022-12-04T10:08:30.051Z,101834.63
2022-12-04T10:14:12.326Z,101843.43
2022-12-04T10:19:52.269Z,101840.53
2022-12-04T10:25:34.467Z,101842.53
2022-12-04T10:30:59.109Z,101806.53
2022-12-04T10:36:30.350Z,101814.25
2022-12-04T10:42:12.541Z,101816.02
2022-12-04T10:47:35.130Z,101814.28
2022-12-04T10:52:58.219Z,101830.09
2022-12-04T10:58:30.394Z,101821.15
2022-12-04T11:03:56.274Z,101830.83
2022-12-04T11:09:29.658Z,101832.57
2022-12-04T11:14:51.935Z,101832.53
2022-12-04T11:20:31.655Z,101833.41
2022-12-04T11:26:05.575Z,101830.80
2022-12-04T11:31:27.337Z,101820.25
2022-12-04T11:36:56.370Z,101814.12
2022-12-04T11:42:35.391Z,101820.31
2022-12-04T11:48:01.175Z,101819.44
2022-12-04T11:53:31.741Z,101814.22
2022-12-04T11:59:22.425Z,101812.44
2022-12-04T12:04:41.969Z,101815.12
2022-12-04T12:10:12.703Z,101815.09
2022-12-04T12:15:59.321Z,101805.41
2022-12-04T12:22:03.465Z,101815.09
2022-12-04T12:27:19.756Z,101797.44
2022-12-04T12:33:26.022Z,101787.83
2022-12-04T12:39:05.404Z,101780.73
2022-12-04T12:44:50.439Z,101790.41
2022-12-04T12:50:29.758Z,101784.25
2022-12-04T12:56:01.935Z,101782.55
2022-12-04T13:01:49.139Z,101775.55
2022-12-04T13:07:35.173Z,101779.06
2022-12-04T13:13:21.109Z,101775.31
2022-12-04T13:18:48.518Z,101774.64
2022-12-04T13:24:35.322Z,101775.52
2022-12-04T13:30:27.695Z,101778.19
2022-12-04T13:36:20.576Z,101764.12
2022-12-04T13:41:46.201Z,101766.80
2022-12-04T13:47:13.109Z,101765.94
2022-12-04T13:52:50.717Z,101768.61
2022-12-04T13:58:27.393Z,101767.73
2022-12-04T14:04:10.744Z,101768.61
2022-12-04T14:09:43.631Z,101777.45
2022-12-04T14:15:19.827Z,101790.63
2022-12-04T14:20:48.611Z,101785.41
2022-12-04T14:26:12.931Z,101789.83
2022-12-04T14:31:56.499Z,101781.05
2022-12-04T14:37:22.023Z,101788.09
2022-12-04T14:42:59.275Z,101788.09
2022-12-04T14:48:38.294Z,101794.25
2022-12-04T14:54:11.398Z,101779.28
2022-12-04T14:59:52.615Z,101784.63
2022-12-04T15:05:17.414Z,101775.80
2022-12-04T15:11:00.773Z,101776.70
2022-12-04T15:16:35.594Z,101775.83
2022-12-04T15:21:59.717Z,101777.58
2022-12-04T15:27:30.343Z,101779.34
2022-12-04T15:32:49.938Z,101777.57
2022-12-04T15:38:15.287Z,101770.55
2022-12-04T15:43:48.342Z,101759.97
2022-12-04T15:49:22.269Z,101770.58
2022-12-04T15:54:47.986Z,101771.44
2022-12-04T16:00:14.030Z,101771.41
2022-12-04T16:05:42.984Z,101769.64
2022-12-04T16:11:28.293Z,101758.22
2022-12-04T16:16:58.091Z,101767.03
2022-12-04T16:22:20.759Z,101769.67
2022-12-04T16:27:44.429Z,101769.64
2022-12-04T16:33:07.183Z,101780.22
2022-12-04T16:38:35.853Z,101766.13
2022-12-04T16:44:01.058Z,101769.64
2022-12-04T16:49:25.121Z,101770.55
2022-12-04T16:54:47.583Z,101780.25
2022-12-04T17:00:10.239Z,101794.37
2022-12-04T17:05:41.745Z,101789.14
2022-12-04T17:11:05.082Z,101792.66
2022-12-04T17:16:29.502Z,101789.14
2022-12-04T17:21:52.447Z,101794.46
2022-12-04T17:27:14.699Z,101790.95
2022-12-04T17:32:37.584Z,101795.36
2022-12-04T17:38:05.648Z,101808.58
2022-12-04T17:43:23.932Z,101810.35
2022-12-04T17:48:47.630Z,101810.38
2022-12-04T17:54:10.869Z,101820.92
2022-12-04T17:59:35.098Z,101818.13
2022-12-04T18:05:02.875Z,101816.48
2022-12-04T18:10:27.732Z,101818.28
2022-12-04T18:15:51.998Z,101820.90
2022-12-04T18:21:28.164Z,101813.84
2022-12-04T18:26:57.531Z,101821.80
2022-12-04T18:32:22.120Z,101820.90
2022-12-04T18:37:46.636Z,101808.58
2022-12-04T18:43:13.093Z,101807.68
2022-12-04T18:48:35.370Z,101817.35
2022-12-04T18:53:58.183Z,101821.80
2022-12-04T18:59:29.895Z,101828.86
2022-12-04T19:04:52.143Z,101835.02
2022-12-04T19:10:15.569Z,101824.44
2022-12-04T19:15:39.059Z,101813.84
2022-12-04T19:21:02.204Z,101823.52
2022-12-04T19:26:24.577Z,101841.14
2022-12-04T19:31:52.368Z,101849.08
2022-12-04T19:37:14.273Z,101845.53
2022-12-04T19:42:37.109Z,101845.50
2022-12-04T19:47:59.439Z,101842.89
2022-12-04T19:53:21.830Z,101852.56
2022-12-04T19:58:44.935Z,101838.44
2022-12-04T20:04:09.574Z,101840.25
2022-12-04T20:09:34.839Z,101832.31
2022-12-04T20:14:57.833Z,101836.73
2022-12-04T20:20:21.103Z,101829.73
2022-12-04T20:25:43.398Z,101831.73
2022-12-04T20:31:06.143Z,101829.61
2022-12-04T20:36:31.546Z,101835.83
2022-12-04T20:41:54.634Z,101825.28
2022-12-04T20:47:17.626Z,101836.76
2022-12-04T20:52:39.893Z,101836.76
2022-12-04T20:58:02.742Z,101838.50
2022-12-04T21:03:24.924Z,101848.17
2022-12-04T21:08:53.892Z,101847.30
2022-12-04T21:14:37.163Z,101845.56
2022-12-04T21:20:04.264Z,101843.81
2022-12-04T21:25:25.692Z,101844.72
2022-12-04T21:30:48.467Z,101842.08
2022-12-04T21:36:15.489Z,101850.00
2022-12-04T21:41:55.649Z,101854.39
2022-12-04T21:47:11.735Z,101856.16
2022-12-04T21:52:38.085Z,101847.36
2022-12-04T21:58:00.370Z,101843.81
2022-12-04T22:03:22.775Z,101851.75
2022-12-04T22:08:46.974Z,101845.59
2022-12-04T22:14:10.321Z,101834.14
2022-12-04T22:19:34.320Z,101829.73
2022-12-04T22:24:56.857Z,101822.67
2022-12-04T22:30:19.779Z,101823.56
2022-12-04T22:35:42.836Z,101811.28
2022-12-04T22:41:06.101Z,101811.31
2022-12-04T22:46:29.931Z,101794.55
2022-12-04T22:51:52.248Z,101791.91
2022-12-04T22:57:14.446Z,101771.66
2022-12-04T23:02:36.690Z,101770.79
2022-12-04T23:07:59.484Z,101766.41
2022-12-04T23:13:21.766Z,101768.17
2022-12-04T23:18:44.612Z,101769.95
2022-12-04T23:24:08.001Z,101769.92
2022-12-04T23:34:55.495Z,101778.75
2022-12-04T23:40:18.691Z,101769.92
2022-12-04T23:45:41.537Z,101778.78
2022-12-04T23:51:04.991Z,101779.66
2022-12-04T23:56:33.845Z,101794.64
